sensor_id;sensor_type;location;lat;lon;timestamp;temperature;humidity
53268;DHT22;39156;51.176;6.738;2022-07-31T00:00:38;22.40;47.70
53268;DHT22;39156;51.176;6.738;2022-07-31T00:03:05;22.30;47.60
53268;DHT22;39156;51.176;6.738;2022-07-31T00:05:31;22.30;47.80
53268;DHT22;39156;51.176;6.738;2022-07-31T00:07:58;22.30;48.00
53268;DHT22;39156;51.176;6.738;2022-07-31T00:10:23;22.20;47.90
53268;DHT22;39156;51.176;6.738;2022-07-31T00:12:49;22.20;47.50
53268;DHT22;39156;51.176;6.738;2022-07-31T00:15:16;22.10;47.70
53268;DHT22;39156;51.176;6.738;2022-07-31T00:17:42;22.10;47.90
53268;DHT22;39156;51.176;6.738;2022-07-31T00:20:10;22.00;48.10
53268;DHT22;39156;51.176;6.738;2022-07-31T00:22:38;22.00;48.30
53268;DHT22;39156;51.176;6.738;2022-07-31T00:25:05;21.90;48.50
53268;DHT22;39156;51.176;6.738;2022-07-31T00:27:31;21.90;48.50
53268;DHT22;39156;51.176;6.738;2022-07-31T00:29:57;21.90;48.40
53268;DHT22;39156;51.176;6.738;2022-07-31T00:32:22;21.80;48.30
53268;DHT22;39156;51.176;6.738;2022-07-31T00:34:48;21.80;48.40
53268;DHT22;39156;51.176;6.738;2022-07-31T00:37:14;21.80;48.40
53268;DHT22;39156;51.176;6.738;2022-07-31T00:39:40;21.70;48.40
53268;DHT22;39156;51.176;6.738;2022-07-31T00:42:22;21.70;48.30
53268;DHT22;39156;51.176;6.738;2022-07-31T00:44:49;21.70;48.50
53268;DHT22;39156;51.176;6.738;2022-07-31T00:47:15;21.70;48.50
53268;DHT22;39156;51.176;6.738;2022-07-31T00:49:41;21.60;48.10
53268;DHT22;39156;51.176;6.738;2022-07-31T00:52:07;21.60;48.40
53268;DHT22;39156;51.176;6.738;2022-07-31T00:54:33;21.60;48.70
53268;DHT22;39156;51.176;6.738;2022-07-31T00:57:00;21.60;48.80
53268;DHT22;39156;51.176;6.738;2022-07-31T00:59:26;21.60;48.90
53268;DHT22;39156;51.176;6.738;2022-07-31T01:01:52;21.50;48.90
53268;DHT22;39156;51.176;6.738;2022-07-31T01:04:18;21.60;48.50
53268;DHT22;39156;51.176;6.738;2022-07-31T01:06:44;21.50;48.90
53268;DHT22;39156;51.176;6.738;2022-07-31T01:09:10;21.50;49.10
53268;DHT22;39156;51.176;6.738;2022-07-31T01:11:59;21.40;49.30
53268;DHT22;39156;51.176;6.738;2022-07-31T01:14:33;21.40;49.50
53268;DHT22;39156;51.176;6.738;2022-07-31T01:17:02;21.40;49.60
53268;DHT22;39156;51.176;6.738;2022-07-31T01:19:37;21.40;49.60
53268;DHT22;39156;51.176;6.738;2022-07-31T01:28:38;21.20;49.70
53268;DHT22;39156;51.176;6.738;2022-07-31T01:31:29;21.20;49.80
53268;DHT22;39156;51.176;6.738;2022-07-31T01:34:52;21.20;49.90
53268;DHT22;39156;51.176;6.738;2022-07-31T01:40:24;21.20;50.00
53268;DHT22;39156;51.176;6.738;2022-07-31T01:43:01;21.10;50.00
53268;DHT22;39156;51.176;6.738;2022-07-31T01:45:32;21.10;50.30
53268;DHT22;39156;51.176;6.738;2022-07-31T01:48:00;21.10;50.10
53268;DHT22;39156;51.176;6.738;2022-07-31T01:50:27;21.00;50.10
53268;DHT22;39156;51.176;6.738;2022-07-31T01:52:54;21.00;50.10
53268;DHT22;39156;51.176;6.738;2022-07-31T01:55:23;21.00;50.20
53268;DHT22;39156;51.176;6.738;2022-07-31T01:57:49;21.00;50.30
53268;DHT22;39156;51.176;6.738;2022-07-31T02:00:15;21.00;50.20
53268;DHT22;39156;51.176;6.738;2022-07-31T02:02:43;21.00;50.10
53268;DHT22;39156;51.176;6.738;2022-07-31T02:05:12;21.00;50.20
53268;DHT22;39156;51.176;6.738;2022-07-31T02:07:39;21.00;50.20
53268;DHT22;39156;51.176;6.738;2022-07-31T02:10:08;21.00;50.30
53268;DHT22;39156;51.176;6.738;2022-07-31T02:12:36;20.90;50.20
53268;DHT22;39156;51.176;6.738;2022-07-31T02:15:07;20.90;50.30
53268;DHT22;39156;51.176;6.738;2022-07-31T02:17:35;20.90;50.40
53268;DHT22;39156;51.176;6.738;2022-07-31T02:20:04;20.90;50.20
53268;DHT22;39156;51.176;6.738;2022-07-31T02:22:32;20.80;50.20
53268;DHT22;39156;51.176;6.738;2022-07-31T02:24:59;20.80;50.30
53268;DHT22;39156;51.176;6.738;2022-07-31T02:27:26;20.80;50.50
53268;DHT22;39156;51.176;6.738;2022-07-31T02:29:58;20.70;50.60
53268;DHT22;39156;51.176;6.738;2022-07-31T02:32:25;20.70;50.80
53268;DHT22;39156;51.176;6.738;2022-07-31T02:34:53;20.70;50.70
53268;DHT22;39156;51.176;6.738;2022-07-31T02:37:21;20.70;50.80
53268;DHT22;39156;51.176;6.738;2022-07-31T02:39:49;20.70;50.90
53268;DHT22;39156;51.176;6.738;2022-07-31T02:42:17;20.60;51.10
53268;DHT22;39156;51.176;6.738;2022-07-31T02:44:44;20.60;51.30
53268;DHT22;39156;51.176;6.738;2022-07-31T02:47:10;20.60;51.40
53268;DHT22;39156;51.176;6.738;2022-07-31T02:49:36;20.60;51.30
53268;DHT22;39156;51.176;6.738;2022-07-31T02:52:04;20.60;51.20
53268;DHT22;39156;51.176;6.738;2022-07-31T02:54:31;20.60;51.30
53268;DHT22;39156;51.176;6.738;2022-07-31T02:56:59;20.60;51.30
53268;DHT22;39156;51.176;6.738;2022-07-31T02:59:26;20.60;51.30
53268;DHT22;39156;51.176;6.738;2022-07-31T03:01:52;20.50;51.30
53268;DHT22;39156;51.176;6.738;2022-07-31T03:04:19;20.50;51.40
53268;DHT22;39156;51.176;6.738;2022-07-31T03:06:45;20.50;51.50
53268;DHT22;39156;51.176;6.738;2022-07-31T03:09:13;20.50;51.60
53268;DHT22;39156;51.176;6.738;2022-07-31T03:11:39;20.40;51.60
53268;DHT22;39156;51.176;6.738;2022-07-31T03:14:06;20.50;51.40
53268;DHT22;39156;51.176;6.738;2022-07-31T03:16:33;20.40;51.50
53268;DHT22;39156;51.176;6.738;2022-07-31T03:19:01;20.40;52.20
53268;DHT22;39156;51.176;6.738;2022-07-31T03:21:28;20.30;51.60
53268;DHT22;39156;51.176;6.738;2022-07-31T03:23:55;20.30;51.70
53268;DHT22;39156;51.176;6.738;2022-07-31T03:26:22;20.30;51.70
53268;DHT22;39156;51.176;6.738;2022-07-31T03:28:48;20.30;51.80
53268;DHT22;39156;51.176;6.738;2022-07-31T03:31:13;20.30;51.80
53268;DHT22;39156;51.176;6.738;2022-07-31T03:33:39;20.30;51.90
53268;DHT22;39156;51.176;6.738;2022-07-31T03:36:05;20.20;51.90
53268;DHT22;39156;51.176;6.738;2022-07-31T03:38:33;20.20;52.00
53268;DHT22;39156;51.176;6.738;2022-07-31T03:40:59;20.20;52.20
53268;DHT22;39156;51.176;6.738;2022-07-31T03:43:27;20.20;52.20
53268;DHT22;39156;51.176;6.738;2022-07-31T03:45:57;20.20;52.20
53268;DHT22;39156;51.176;6.738;2022-07-31T03:48:24;20.20;52.30
53268;DHT22;39156;51.176;6.738;2022-07-31T03:50:51;20.20;52.30
53268;DHT22;39156;51.176;6.738;2022-07-31T03:53:17;20.20;52.40
53268;DHT22;39156;51.176;6.738;2022-07-31T03:55:43;20.20;52.40
53268;DHT22;39156;51.176;6.738;2022-07-31T03:58:10;20.30;52.30
53268;DHT22;39156;51.176;6.738;2022-07-31T04:00:36;20.20;52.30
53268;DHT22;39156;51.176;6.738;2022-07-31T04:03:07;20.20;52.40
53268;DHT22;39156;51.176;6.738;2022-07-31T04:05:34;20.20;52.50
53268;DHT22;39156;51.176;6.738;2022-07-31T04:08:00;20.30;52.40
53268;DHT22;39156;51.176;6.738;2022-07-31T04:10:26;20.30;52.40
53268;DHT22;39156;51.176;6.738;2022-07-31T04:12:52;20.30;52.40
53268;DHT22;39156;51.176;6.738;2022-07-31T04:15:18;20.30;52.30
53268;DHT22;39156;51.176;6.738;2022-07-31T04:17:44;20.30;52.20
53268;DHT22;39156;51.176;6.738;2022-07-31T04:20:10;20.30;52.20
53268;DHT22;39156;51.176;6.738;2022-07-31T04:22:36;20.30;52.20
53268;DHT22;39156;51.176;6.738;2022-07-31T04:25:03;20.30;52.10
53268;DHT22;39156;51.176;6.738;2022-07-31T04:27:30;20.30;52.10
53268;DHT22;39156;51.176;6.738;2022-07-31T04:29:56;20.40;52.10
53268;DHT22;39156;51.176;6.738;2022-07-31T04:32:23;20.40;52.20
53268;DHT22;39156;51.176;6.738;2022-07-31T04:34:49;20.40;52.00
53268;DHT22;39156;51.176;6.738;2022-07-31T04:37:15;20.40;52.00
53268;DHT22;39156;51.176;6.738;2022-07-31T04:39:43;20.50;51.90
53268;DHT22;39156;51.176;6.738;2022-07-31T04:42:09;20.50;52.00
53268;DHT22;39156;51.176;6.738;2022-07-31T04:44:35;20.50;52.00
53268;DHT22;39156;51.176;6.738;2022-07-31T04:47:01;20.50;52.00
53268;DHT22;39156;51.176;6.738;2022-07-31T04:49:30;20.50;52.10
53268;DHT22;39156;51.176;6.738;2022-07-31T04:51:58;20.50;52.10
53268;DHT22;39156;51.176;6.738;2022-07-31T04:54:25;20.50;52.10
53268;DHT22;39156;51.176;6.738;2022-07-31T04:56:50;20.60;52.10
53268;DHT22;39156;51.176;6.738;2022-07-31T04:59:19;20.60;52.10
53268;DHT22;39156;51.176;6.738;2022-07-31T05:01:46;20.70;52.10
53268;DHT22;39156;51.176;6.738;2022-07-31T05:04:12;20.70;52.00
53268;DHT22;39156;51.176;6.738;2022-07-31T05:06:42;20.70;51.90
53268;DHT22;39156;51.176;6.738;2022-07-31T05:09:11;20.70;51.80
53268;DHT22;39156;51.176;6.738;2022-07-31T05:11:39;20.80;51.80
53268;DHT22;39156;51.176;6.738;2022-07-31T05:14:06;20.80;51.60
53268;DHT22;39156;51.176;6.738;2022-07-31T05:16:33;20.80;51.60
53268;DHT22;39156;51.176;6.738;2022-07-31T05:19:00;20.90;51.70
53268;DHT22;39156;51.176;6.738;2022-07-31T05:21:27;20.90;51.70
53268;DHT22;39156;51.176;6.738;2022-07-31T05:23:55;20.90;51.60
53268;DHT22;39156;51.176;6.738;2022-07-31T05:26:22;20.90;51.60
53268;DHT22;39156;51.176;6.738;2022-07-31T05:28:49;20.90;51.70
53268;DHT22;39156;51.176;6.738;2022-07-31T05:31:16;21.00;51.50
53268;DHT22;39156;51.176;6.738;2022-07-31T05:33:43;21.00;51.50
53268;DHT22;39156;51.176;6.738;2022-07-31T05:36:10;21.00;51.60
53268;DHT22;39156;51.176;6.738;2022-07-31T05:38:36;21.00;51.60
53268;DHT22;39156;51.176;6.738;2022-07-31T05:41:02;21.00;51.70
53268;DHT22;39156;51.176;6.738;2022-07-31T05:43:27;21.00;51.80
53268;DHT22;39156;51.176;6.738;2022-07-31T05:45:54;21.00;52.00
53268;DHT22;39156;51.176;6.738;2022-07-31T05:48:20;21.10;52.00
53268;DHT22;39156;51.176;6.738;2022-07-31T05:50:47;21.20;51.80
53268;DHT22;39156;51.176;6.738;2022-07-31T05:53:14;21.30;51.90
53268;DHT22;39156;51.176;6.738;2022-07-31T05:55:41;21.40;51.90
53268;DHT22;39156;51.176;6.738;2022-07-31T05:58:08;21.50;51.80
53268;DHT22;39156;51.176;6.738;2022-07-31T06:00:34;21.60;51.70
53268;DHT22;39156;51.176;6.738;2022-07-31T06:03:00;21.80;51.80
53268;DHT22;39156;51.176;6.738;2022-07-31T06:05:27;22.00;51.70
53268;DHT22;39156;51.176;6.738;2022-07-31T06:07:54;22.10;51.30
53268;DHT22;39156;51.176;6.738;2022-07-31T06:10:21;22.30;51.10
53268;DHT22;39156;51.176;6.738;2022-07-31T06:12:47;22.40;50.90
53268;DHT22;39156;51.176;6.738;2022-07-31T06:15:13;22.60;50.60
53268;DHT22;39156;51.176;6.738;2022-07-31T06:17:39;22.70;50.50
53268;DHT22;39156;51.176;6.738;2022-07-31T06:20:06;22.80;50.30
53268;DHT22;39156;51.176;6.738;2022-07-31T06:22:33;22.90;50.20
53268;DHT22;39156;51.176;6.738;2022-07-31T06:24:58;23.00;50.10
53268;DHT22;39156;51.176;6.738;2022-07-31T06:27:24;23.10;49.70
53268;DHT22;39156;51.176;6.738;2022-07-31T06:29:50;23.20;49.60
53268;DHT22;39156;51.176;6.738;2022-07-31T06:32:16;23.30;49.50
53268;DHT22;39156;51.176;6.738;2022-07-31T06:34:41;23.30;49.40
53268;DHT22;39156;51.176;6.738;2022-07-31T06:37:07;23.30;49.20
53268;DHT22;39156;51.176;6.738;2022-07-31T06:39:33;23.30;49.20
53268;DHT22;39156;51.176;6.738;2022-07-31T06:41:59;23.30;49.30
53268;DHT22;39156;51.176;6.738;2022-07-31T06:44:25;23.20;49.30
53268;DHT22;39156;51.176;6.738;2022-07-31T06:46:50;23.20;49.50
53268;DHT22;39156;51.176;6.738;2022-07-31T06:49:17;23.10;49.80
53268;DHT22;39156;51.176;6.738;2022-07-31T06:51:43;23.00;49.80
53268;DHT22;39156;51.176;6.738;2022-07-31T06:54:10;23.00;50.00
53268;DHT22;39156;51.176;6.738;2022-07-31T06:56:36;22.90;50.20
53268;DHT22;39156;51.176;6.738;2022-07-31T06:59:04;22.90;50.40
53268;DHT22;39156;51.176;6.738;2022-07-31T07:01:31;22.80;50.80
53268;DHT22;39156;51.176;6.738;2022-07-31T07:03:56;22.70;51.00
53268;DHT22;39156;51.176;6.738;2022-07-31T07:06:22;22.70;51.10
53268;DHT22;39156;51.176;6.738;2022-07-31T07:08:49;22.70;51.10
53268;DHT22;39156;51.176;6.738;2022-07-31T07:11:14;22.60;51.50
53268;DHT22;39156;51.176;6.738;2022-07-31T07:13:40;22.60;51.80
53268;DHT22;39156;51.176;6.738;2022-07-31T07:16:06;22.50;51.70
53268;DHT22;39156;51.176;6.738;2022-07-31T07:18:32;22.50;51.70
53268;DHT22;39156;51.176;6.738;2022-07-31T07:20:58;22.50;51.90
53268;DHT22;39156;51.176;6.738;2022-07-31T07:23:23;22.40;51.80
53268;DHT22;39156;51.176;6.738;2022-07-31T07:25:49;22.40;51.90
53268;DHT22;39156;51.176;6.738;2022-07-31T07:28:16;22.40;52.00
53268;DHT22;39156;51.176;6.738;2022-07-31T07:30:42;22.40;52.20
53268;DHT22;39156;51.176;6.738;2022-07-31T07:33:08;22.40;51.90
53268;DHT22;39156;51.176;6.738;2022-07-31T07:35:33;22.40;52.20
53268;DHT22;39156;51.176;6.738;2022-07-31T07:38:01;22.40;52.50
53268;DHT22;39156;51.176;6.738;2022-07-31T07:40:27;22.40;52.80
53268;DHT22;39156;51.176;6.738;2022-07-31T07:42:53;22.50;52.90
53268;DHT22;39156;51.176;6.738;2022-07-31T07:45:19;22.50;52.70
53268;DHT22;39156;51.176;6.738;2022-07-31T07:47:44;22.50;52.70
53268;DHT22;39156;51.176;6.738;2022-07-31T07:50:10;22.50;52.80
53268;DHT22;39156;51.176;6.738;2022-07-31T07:52:37;22.60;53.10
53268;DHT22;39156;51.176;6.738;2022-07-31T07:55:04;22.60;53.30
53268;DHT22;39156;51.176;6.738;2022-07-31T07:57:31;22.70;53.30
53268;DHT22;39156;51.176;6.738;2022-07-31T08:00:04;22.80;53.70
53268;DHT22;39156;51.176;6.738;2022-07-31T08:02:32;22.90;53.20
53268;DHT22;39156;51.176;6.738;2022-07-31T08:04:59;23.10;53.20
53268;DHT22;39156;51.176;6.738;2022-07-31T08:07:32;23.30;53.30
53268;DHT22;39156;51.176;6.738;2022-07-31T08:10:00;23.50;53.60
53268;DHT22;39156;51.176;6.738;2022-07-31T08:12:27;24.00;54.60
53268;DHT22;39156;51.176;6.738;2022-07-31T08:14:53;24.50;54.40
53268;DHT22;39156;51.176;6.738;2022-07-31T08:17:19;25.10;53.70
53268;DHT22;39156;51.176;6.738;2022-07-31T08:19:45;25.60;52.20
53268;DHT22;39156;51.176;6.738;2022-07-31T08:22:11;25.90;51.20
53268;DHT22;39156;51.176;6.738;2022-07-31T08:24:37;26.20;49.90
53268;DHT22;39156;51.176;6.738;2022-07-31T08:27:03;26.40;48.90
53268;DHT22;39156;51.176;6.738;2022-07-31T08:29:47;26.40;48.50
53268;DHT22;39156;51.176;6.738;2022-07-31T08:32:14;26.50;48.10
53268;DHT22;39156;51.176;6.738;2022-07-31T08:34:39;26.50;47.70
53268;DHT22;39156;51.176;6.738;2022-07-31T08:37:06;26.40;47.40
53268;DHT22;39156;51.176;6.738;2022-07-31T08:39:35;26.40;47.30
53268;DHT22;39156;51.176;6.738;2022-07-31T08:42:08;26.20;47.00
53268;DHT22;39156;51.176;6.738;2022-07-31T08:44:35;26.20;47.10
53268;DHT22;39156;51.176;6.738;2022-07-31T08:47:05;26.10;47.20
53268;DHT22;39156;51.176;6.738;2022-07-31T08:49:38;26.00;47.30
53268;DHT22;39156;51.176;6.738;2022-07-31T08:52:09;25.90;47.20
53268;DHT22;39156;51.176;6.738;2022-07-31T08:54:41;25.90;47.40
53268;DHT22;39156;51.176;6.738;2022-07-31T08:57:10;25.90;47.40
53268;DHT22;39156;51.176;6.738;2022-07-31T08:59:39;25.90;47.50
53268;DHT22;39156;51.176;6.738;2022-07-31T09:02:09;26.00;47.40
53268;DHT22;39156;51.176;6.738;2022-07-31T09:04:36;26.10;47.50
53268;DHT22;39156;51.176;6.738;2022-07-31T09:07:02;26.20;47.50
53268;DHT22;39156;51.176;6.738;2022-07-31T09:09:29;26.40;47.50
53268;DHT22;39156;51.176;6.738;2022-07-31T09:11:56;26.60;47.70
53268;DHT22;39156;51.176;6.738;2022-07-31T09:14:30;26.80;47.70
53268;DHT22;39156;51.176;6.738;2022-07-31T09:16:59;27.10;47.00
53268;DHT22;39156;51.176;6.738;2022-07-31T09:19:40;27.30;47.10
53268;DHT22;39156;51.176;6.738;2022-07-31T09:22:19;27.60;46.00
53268;DHT22;39156;51.176;6.738;2022-07-31T09:24:45;27.90;45.40
53268;DHT22;39156;51.176;6.738;2022-07-31T09:27:11;28.00;45.40
53268;DHT22;39156;51.176;6.738;2022-07-31T09:29:39;28.10;45.90
53268;DHT22;39156;51.176;6.738;2022-07-31T09:32:10;28.20;44.40
53268;DHT22;39156;51.176;6.738;2022-07-31T09:34:36;28.20;44.20
53268;DHT22;39156;51.176;6.738;2022-07-31T09:37:18;28.10;44.40
53268;DHT22;39156;51.176;6.738;2022-07-31T09:39:52;28.10;44.10
53268;DHT22;39156;51.176;6.738;2022-07-31T09:42:20;28.10;44.00
53268;DHT22;39156;51.176;6.738;2022-07-31T09:44:49;28.10;44.20
53268;DHT22;39156;51.176;6.738;2022-07-31T09:47:23;28.00;44.00
53268;DHT22;39156;51.176;6.738;2022-07-31T09:50:00;28.00;43.90
53268;DHT22;39156;51.176;6.738;2022-07-31T09:52:30;27.90;44.10
53268;DHT22;39156;51.176;6.738;2022-07-31T09:55:07;27.80;44.00
53268;DHT22;39156;51.176;6.738;2022-07-31T09:57:38;27.70;44.00
53268;DHT22;39156;51.176;6.738;2022-07-31T10:00:09;27.60;44.10
53268;DHT22;39156;51.176;6.738;2022-07-31T10:02:38;27.40;44.30
53268;DHT22;39156;51.176;6.738;2022-07-31T10:05:05;27.30;44.40
53268;DHT22;39156;51.176;6.738;2022-07-31T10:07:32;27.20;44.60
53268;DHT22;39156;51.176;6.738;2022-07-31T10:10:02;27.10;44.90
53268;DHT22;39156;51.176;6.738;2022-07-31T10:12:30;27.00;45.10
53268;DHT22;39156;51.176;6.738;2022-07-31T10:15:03;27.00;45.20
53268;DHT22;39156;51.176;6.738;2022-07-31T10:17:32;26.80;45.20
53268;DHT22;39156;51.176;6.738;2022-07-31T10:20:05;26.80;45.40
53268;DHT22;39156;51.176;6.738;2022-07-31T10:22:37;26.80;45.40
53268;DHT22;39156;51.176;6.738;2022-07-31T10:25:06;26.80;45.50
53268;DHT22;39156;51.176;6.738;2022-07-31T10:27:37;26.80;45.70
53268;DHT22;39156;51.176;6.738;2022-07-31T10:30:05;26.80;45.80
53268;DHT22;39156;51.176;6.738;2022-07-31T10:32:31;26.90;45.70
53268;DHT22;39156;51.176;6.738;2022-07-31T10:34:57;27.00;45.80
53268;DHT22;39156;51.176;6.738;2022-07-31T10:37:38;27.10;45.80
53268;DHT22;39156;51.176;6.738;2022-07-31T10:43:20;27.40;45.30
53268;DHT22;39156;51.176;6.738;2022-07-31T10:46:01;27.50;45.20
53268;DHT22;39156;51.176;6.738;2022-07-31T10:48:27;27.60;45.00
53268;DHT22;39156;51.176;6.738;2022-07-31T10:51:04;27.70;45.00
53268;DHT22;39156;51.176;6.738;2022-07-31T10:53:31;27.80;44.40
53268;DHT22;39156;51.176;6.738;2022-07-31T10:58:27;27.90;45.10
53268;DHT22;39156;51.176;6.738;2022-07-31T11:01:12;28.00;44.40
53268;DHT22;39156;51.176;6.738;2022-07-31T11:03:44;28.10;44.70
53268;DHT22;39156;51.176;6.738;2022-07-31T11:06:13;28.10;44.80
53268;DHT22;39156;51.176;6.738;2022-07-31T11:08:45;28.10;44.50
53268;DHT22;39156;51.176;6.738;2022-07-31T11:11:13;28.10;44.60
53268;DHT22;39156;51.176;6.738;2022-07-31T11:13:52;28.10;44.20
53268;DHT22;39156;51.176;6.738;2022-07-31T11:16:22;28.20;44.30
53268;DHT22;39156;51.176;6.738;2022-07-31T11:21:36;28.30;44.10
53268;DHT22;39156;51.176;6.738;2022-07-31T11:24:19;28.30;43.60
53268;DHT22;39156;51.176;6.738;2022-07-31T11:26:50;28.30;43.40
53268;DHT22;39156;51.176;6.738;2022-07-31T11:29:31;28.30;43.40
53268;DHT22;39156;51.176;6.738;2022-07-31T11:32:20;28.30;43.20
53268;DHT22;39156;51.176;6.738;2022-07-31T11:37:20;28.40;43.60
53268;DHT22;39156;51.176;6.738;2022-07-31T11:39:52;28.40;43.40
53268;DHT22;39156;51.176;6.738;2022-07-31T11:42:19;28.40;43.30
53268;DHT22;39156;51.176;6.738;2022-07-31T11:44:46;28.40;43.50
53268;DHT22;39156;51.176;6.738;2022-07-31T11:47:12;28.40;43.40
53268;DHT22;39156;51.176;6.738;2022-07-31T11:49:38;28.50;43.40
53268;DHT22;39156;51.176;6.738;2022-07-31T11:52:05;28.50;43.40
53268;DHT22;39156;51.176;6.738;2022-07-31T11:54:36;28.70;43.80
53268;DHT22;39156;51.176;6.738;2022-07-31T11:57:03;28.70;43.40
53268;DHT22;39156;51.176;6.738;2022-07-31T11:59:37;28.80;43.40
53268;DHT22;39156;51.176;6.738;2022-07-31T12:02:11;28.80;43.00
53268;DHT22;39156;51.176;6.738;2022-07-31T12:04:39;28.90;42.70
53268;DHT22;39156;51.176;6.738;2022-07-31T12:07:08;28.90;42.90
53268;DHT22;39156;51.176;6.738;2022-07-31T12:09:35;29.00;42.80
53268;DHT22;39156;51.176;6.738;2022-07-31T12:12:03;29.00;42.40
53268;DHT22;39156;51.176;6.738;2022-07-31T12:14:36;29.10;42.30
53268;DHT22;39156;51.176;6.738;2022-07-31T12:17:04;29.20;42.30
53268;DHT22;39156;51.176;6.738;2022-07-31T12:19:33;29.20;42.30
53268;DHT22;39156;51.176;6.738;2022-07-31T12:22:11;29.30;42.30
53268;DHT22;39156;51.176;6.738;2022-07-31T12:24:38;29.30;42.10
53268;DHT22;39156;51.176;6.738;2022-07-31T12:27:04;29.40;42.30
53268;DHT22;39156;51.176;6.738;2022-07-31T12:29:32;29.40;42.60
53268;DHT22;39156;51.176;6.738;2022-07-31T12:32:00;29.40;42.20
53268;DHT22;39156;51.176;6.738;2022-07-31T12:34:29;29.40;42.00
53268;DHT22;39156;51.176;6.738;2022-07-31T12:37:12;29.40;42.10
53268;DHT22;39156;51.176;6.738;2022-07-31T12:42:37;29.40;42.00
53268;DHT22;39156;51.176;6.738;2022-07-31T12:45:04;29.30;42.10
53268;DHT22;39156;51.176;6.738;2022-07-31T12:47:32;29.30;41.90
53268;DHT22;39156;51.176;6.738;2022-07-31T12:50:00;29.20;42.10
53268;DHT22;39156;51.176;6.738;2022-07-31T12:52:27;29.20;42.10
53268;DHT22;39156;51.176;6.738;2022-07-31T12:54:55;29.10;42.10
53268;DHT22;39156;51.176;6.738;2022-07-31T12:57:20;29.10;42.20
53268;DHT22;39156;51.176;6.738;2022-07-31T12:59:46;29.00;42.40
53268;DHT22;39156;51.176;6.738;2022-07-31T13:02:12;28.90;42.60
53268;DHT22;39156;51.176;6.738;2022-07-31T13:04:37;28.80;42.70
53268;DHT22;39156;51.176;6.738;2022-07-31T13:07:03;28.80;42.60
53268;DHT22;39156;51.176;6.738;2022-07-31T13:09:29;28.70;42.90
53268;DHT22;39156;51.176;6.738;2022-07-31T13:11:55;28.60;43.10
53268;DHT22;39156;51.176;6.738;2022-07-31T13:14:21;28.60;43.10
53268;DHT22;39156;51.176;6.738;2022-07-31T13:16:51;28.60;43.40
53268;DHT22;39156;51.176;6.738;2022-07-31T13:19:18;28.60;43.30
53268;DHT22;39156;51.176;6.738;2022-07-31T13:21:44;28.50;43.40
53268;DHT22;39156;51.176;6.738;2022-07-31T13:24:10;28.50;43.20
53268;DHT22;39156;51.176;6.738;2022-07-31T13:26:38;28.50;43.30
53268;DHT22;39156;51.176;6.738;2022-07-31T13:29:05;28.50;43.40
53268;DHT22;39156;51.176;6.738;2022-07-31T13:31:31;28.40;43.40
53268;DHT22;39156;51.176;6.738;2022-07-31T13:33:57;28.40;43.50
53268;DHT22;39156;51.176;6.738;2022-07-31T13:36:26;28.40;43.50
53268;DHT22;39156;51.176;6.738;2022-07-31T13:38:52;28.40;43.50
53268;DHT22;39156;51.176;6.738;2022-07-31T13:41:18;28.40;44.40
53268;DHT22;39156;51.176;6.738;2022-07-31T13:43:51;28.40;43.60
53268;DHT22;39156;51.176;6.738;2022-07-31T13:46:19;28.40;43.40
53268;DHT22;39156;51.176;6.738;2022-07-31T13:48:46;28.40;43.50
53268;DHT22;39156;51.176;6.738;2022-07-31T13:51:12;28.40;43.70
53268;DHT22;39156;51.176;6.738;2022-07-31T13:53:38;28.40;43.80
53268;DHT22;39156;51.176;6.738;2022-07-31T13:56:04;28.40;43.50
53268;DHT22;39156;51.176;6.738;2022-07-31T13:58:29;28.40;43.60
53268;DHT22;39156;51.176;6.738;2022-07-31T14:00:56;28.40;43.60
53268;DHT22;39156;51.176;6.738;2022-07-31T14:03:23;28.50;43.60
53268;DHT22;39156;51.176;6.738;2022-07-31T14:05:49;28.50;43.60
53268;DHT22;39156;51.176;6.738;2022-07-31T14:08:16;28.60;43.60
53268;DHT22;39156;51.176;6.738;2022-07-31T14:10:44;28.60;43.70
53268;DHT22;39156;51.176;6.738;2022-07-31T14:13:11;28.70;43.50
53268;DHT22;39156;51.176;6.738;2022-07-31T14:15:36;28.80;43.20
53268;DHT22;39156;51.176;6.738;2022-07-31T14:18:02;28.80;43.20
53268;DHT22;39156;51.176;6.738;2022-07-31T14:20:28;28.90;43.10
53268;DHT22;39156;51.176;6.738;2022-07-31T14:22:57;28.80;42.90
53268;DHT22;39156;51.176;6.738;2022-07-31T14:25:22;28.80;42.90
53268;DHT22;39156;51.176;6.738;2022-07-31T14:27:48;28.80;42.90
53268;DHT22;39156;51.176;6.738;2022-07-31T14:30:17;28.80;42.70
53268;DHT22;39156;51.176;6.738;2022-07-31T14:32:43;28.70;42.50
53268;DHT22;39156;51.176;6.738;2022-07-31T14:35:09;28.70;42.70
53268;DHT22;39156;51.176;6.738;2022-07-31T14:37:36;28.70;42.70
53268;DHT22;39156;51.176;6.738;2022-07-31T14:40:03;28.60;42.70
53268;DHT22;39156;51.176;6.738;2022-07-31T14:42:29;28.60;42.70
53268;DHT22;39156;51.176;6.738;2022-07-31T14:44:55;28.60;42.70
53268;DHT22;39156;51.176;6.738;2022-07-31T14:47:23;28.60;43.00
53268;DHT22;39156;51.176;6.738;2022-07-31T14:49:48;28.60;42.80
53268;DHT22;39156;51.176;6.738;2022-07-31T14:52:14;28.50;42.80
53268;DHT22;39156;51.176;6.738;2022-07-31T14:54:40;28.50;42.80
53268;DHT22;39156;51.176;6.738;2022-07-31T14:57:05;28.50;42.80
53268;DHT22;39156;51.176;6.738;2022-07-31T14:59:31;28.40;42.80
53268;DHT22;39156;51.176;6.738;2022-07-31T15:01:57;28.40;42.70
53268;DHT22;39156;51.176;6.738;2022-07-31T15:04:23;28.30;42.90
53268;DHT22;39156;51.176;6.738;2022-07-31T15:06:49;28.30;43.10
53268;DHT22;39156;51.176;6.738;2022-07-31T15:09:15;28.30;43.00
53268;DHT22;39156;51.176;6.738;2022-07-31T15:11:41;28.30;43.30
53268;DHT22;39156;51.176;6.738;2022-07-31T15:14:07;28.20;43.20
53268;DHT22;39156;51.176;6.738;2022-07-31T15:16:32;28.30;43.30
53268;DHT22;39156;51.176;6.738;2022-07-31T15:18:58;28.30;43.40
53268;DHT22;39156;51.176;6.738;2022-07-31T15:21:24;28.30;43.40
53268;DHT22;39156;51.176;6.738;2022-07-31T15:23:50;28.30;43.30
53268;DHT22;39156;51.176;6.738;2022-07-31T15:26:16;28.20;43.40
53268;DHT22;39156;51.176;6.738;2022-07-31T15:28:43;28.30;43.40
53268;DHT22;39156;51.176;6.738;2022-07-31T15:31:09;28.20;43.40
53268;DHT22;39156;51.176;6.738;2022-07-31T15:33:34;28.20;43.20
53268;DHT22;39156;51.176;6.738;2022-07-31T15:36:00;28.20;43.20
53268;DHT22;39156;51.176;6.738;2022-07-31T15:38:27;28.20;43.40
53268;DHT22;39156;51.176;6.738;2022-07-31T15:40:52;28.20;43.50
53268;DHT22;39156;51.176;6.738;2022-07-31T15:43:18;28.10;43.50
53268;DHT22;39156;51.176;6.738;2022-07-31T15:45:44;28.10;43.70
53268;DHT22;39156;51.176;6.738;2022-07-31T15:48:09;28.10;43.70
53268;DHT22;39156;51.176;6.738;2022-07-31T15:50:36;28.10;43.80
53268;DHT22;39156;51.176;6.738;2022-07-31T15:53:02;28.10;43.80
53268;DHT22;39156;51.176;6.738;2022-07-31T15:55:28;28.10;43.90
53268;DHT22;39156;51.176;6.738;2022-07-31T15:57:54;28.20;43.70